RYR76UD LERS-EGSS
Flight info
| Callsign | RYR76UD |
|---|---|
| Flight time | 1h 57m |
| Altitude | 34000 |
| Route | NATPI DCT EVNAM DCT TUPAR UN861 DIKRO UM185 TELTU |
| Aircraft | B738/M-SDE2E3FGHIRWXY/LB1 |
Departure
| Time | 2026-05-06 10:40 |
|---|---|
| Airport | Reus Airport (LERS) |
Arrival
| Time | 2026-05-06 12:37 |
|---|---|
| Airport | London Stansted Airport (EGSS) |
| Time | Latitude | Longitude | Altitude | Speed | Heading |
|---|---|---|---|---|---|
| 2026-05-06 10:19 | 41.14683 | 1.15620 | 241 ft | 0 kts | 339° |
| 2026-05-06 10:30 | 41.14681 | 1.15621 | 241 ft | 2 kts | 339° |
| 2026-05-06 10:30 | 41.14665 | 1.15629 | 241 ft | 2 kts | 339° |
| 2026-05-06 10:31 | 41.14650 | 1.15637 | 241 ft | 2 kts | 339° |
| 2026-05-06 10:31 | 41.14635 | 1.15645 | 241 ft | 2 kts | 339° |
| 2026-05-06 10:31 | 41.14619 | 1.15648 | 241 ft | 2 kts | 19° |
| 2026-05-06 10:31 | 41.14605 | 1.15637 | 241 ft | 2 kts | 51° |
| 2026-05-06 10:32 | 41.14599 | 1.15624 | 241 ft | 0 kts | 71° |
| 2026-05-06 10:33 | 41.14601 | 1.15632 | 241 ft | 3 kts | 71° |
| 2026-05-06 10:34 | 41.14616 | 1.15689 | 241 ft | 10 kts | 70° |
| 2026-05-06 10:34 | 41.14642 | 1.15785 | 241 ft | 12 kts | 70° |
| 2026-05-06 10:34 | 41.14677 | 1.15895 | 241 ft | 14 kts | 68° |
| 2026-05-06 10:34 | 41.14712 | 1.16018 | 241 ft | 15 kts | 70° |
| 2026-05-06 10:35 | 41.14750 | 1.16151 | 241 ft | 16 kts | 69° |
| 2026-05-06 10:35 | 41.14791 | 1.16295 | 241 ft | 17 kts | 69° |
| 2026-05-06 10:35 | 41.14837 | 1.16445 | 241 ft | 18 kts | 69° |
| 2026-05-06 10:35 | 41.14882 | 1.16601 | 241 ft | 19 kts | 69° |
| 2026-05-06 10:36 | 41.14930 | 1.16765 | 241 ft | 19 kts | 67° |
| 2026-05-06 10:36 | 41.14979 | 1.16926 | 241 ft | 19 kts | 69° |
| 2026-05-06 10:36 | 41.15024 | 1.17085 | 241 ft | 18 kts | 69° |
| 2026-05-06 10:36 | 41.15070 | 1.17240 | 241 ft | 18 kts | 69° |
| 2026-05-06 10:37 | 41.15114 | 1.17395 | 241 ft | 18 kts | 69° |
| 2026-05-06 10:37 | 41.15161 | 1.17554 | 241 ft | 19 kts | 68° |
| 2026-05-06 10:37 | 41.15208 | 1.17714 | 241 ft | 18 kts | 69° |
| 2026-05-06 10:37 | 41.15254 | 1.17871 | 241 ft | 18 kts | 69° |
| 2026-05-06 10:38 | 41.15299 | 1.18025 | 241 ft | 18 kts | 69° |
| 2026-05-06 10:38 | 41.15343 | 1.18177 | 241 ft | 18 kts | 69° |
| 2026-05-06 10:38 | 41.15341 | 1.18321 | 241 ft | 17 kts | 144° |
| 2026-05-06 10:38 | 41.15233 | 1.18298 | 241 ft | 16 kts | 206° |
| 2026-05-06 10:39 | 41.15170 | 1.18188 | 241 ft | 16 kts | 248° |
| 2026-05-06 10:39 | 41.15090 | 1.17918 | 241 ft | 64 kts | 249° |
| 2026-05-06 10:39 | 41.14840 | 1.17064 | 241 ft | 132 kts | 249° |
| 2026-05-06 10:39 | 41.14442 | 1.15735 | 416 ft | 170 kts | 246° |
| 2026-05-06 10:40 | 41.14004 | 1.14246 | 1192 ft | 171 kts | 248° |
| 2026-05-06 10:40 | 41.13471 | 1.12896 | 2192 ft | 164 kts | 235° |
| 2026-05-06 10:40 | 41.12794 | 1.11635 | 2869 ft | 179 kts | 237° |
| 2026-05-06 10:40 | 41.12100 | 1.10114 | 3193 ft | 206 kts | 240° |
| 2026-05-06 10:41 | 41.11273 | 1.08490 | 3715 ft | 216 kts | 238° |
| 2026-05-06 10:41 | 41.10461 | 1.06773 | 4296 ft | 229 kts | 240° |
| 2026-05-06 10:41 | 41.09581 | 1.04844 | 4630 ft | 255 kts | 240° |
| 2026-05-06 10:41 | 41.08650 | 1.02797 | 5404 ft | 262 kts | 240° |
| 2026-05-06 10:42 | 41.07733 | 1.00751 | 6354 ft | 260 kts | 240° |
| 2026-05-06 10:42 | 41.06795 | 0.98665 | 7129 ft | 265 kts | 239° |
| 2026-05-06 10:42 | 41.05850 | 0.96571 | 7999 ft | 264 kts | 239° |
| 2026-05-06 10:42 | 41.04908 | 0.94474 | 8874 ft | 265 kts | 239° |
| 2026-05-06 10:43 | 41.03961 | 0.92364 | 9712 ft | 267 kts | 239° |
| 2026-05-06 10:43 | 41.03312 | 0.90048 | 10384 ft | 277 kts | 262° |
| 2026-05-06 10:43 | 41.03499 | 0.87407 | 10616 ft | 305 kts | 286° |
| 2026-05-06 10:44 | 41.06349 | 0.83015 | 11738 ft | 339 kts | 329° |
| 2026-05-06 10:44 | 41.08628 | 0.82031 | 12470 ft | 351 kts | 348° |
| 2026-05-06 10:44 | 41.11094 | 0.82116 | 13296 ft | 360 kts | 6° |
| 2026-05-06 10:44 | 41.13579 | 0.82704 | 14060 ft | 365 kts | 7° |
| 2026-05-06 10:45 | 41.16098 | 0.83357 | 14714 ft | 372 kts | 7° |
| 2026-05-06 10:45 | 41.18667 | 0.84038 | 15368 ft | 378 kts | 7° |
| 2026-05-06 10:45 | 41.21233 | 0.84704 | 16033 ft | 383 kts | 7° |
| 2026-05-06 10:45 | 41.23870 | 0.85388 | 16697 ft | 389 kts | 6° |
| 2026-05-06 10:46 | 41.26545 | 0.86080 | 17395 ft | 393 kts | 6° |
| 2026-05-06 10:46 | 41.29252 | 0.86774 | 18065 ft | 399 kts | 6° |
| 2026-05-06 10:46 | 41.32004 | 0.87473 | 18614 ft | 405 kts | 6° |
| 2026-05-06 10:46 | 41.34781 | 0.88178 | 19289 ft | 407 kts | 5° |
| 2026-05-06 10:47 | 41.37580 | 0.88886 | 19864 ft | 411 kts | 5° |
| 2026-05-06 10:47 | 41.40409 | 0.89600 | 20397 ft | 417 kts | 5° |
| 2026-05-06 10:47 | 41.43246 | 0.90315 | 20933 ft | 422 kts | 5° |
| 2026-05-06 10:47 | 41.46147 | 0.91047 | 21505 ft | 426 kts | 5° |
| 2026-05-06 10:48 | 41.49071 | 0.91785 | 22056 ft | 430 kts | 4° |
| 2026-05-06 10:48 | 41.52043 | 0.92536 | 22576 ft | 436 kts | 4° |
| 2026-05-06 10:48 | 41.55040 | 0.93293 | 23088 ft | 440 kts | 4° |
| 2026-05-06 10:48 | 41.58072 | 0.94061 | 23586 ft | 445 kts | 4° |
| 2026-05-06 10:49 | 41.60093 | 0.94574 | 23867 ft | 448 kts | 4° |
| 2026-05-06 10:49 | 41.64188 | 0.95614 | 24454 ft | 453 kts | 4° |
| 2026-05-06 10:49 | 41.66290 | 0.96149 | 24759 ft | 455 kts | 4° |
| 2026-05-06 10:49 | 41.70428 | 0.97203 | 25343 ft | 459 kts | 4° |
| 2026-05-06 10:50 | 41.72515 | 0.97735 | 25627 ft | 461 kts | 4° |
| 2026-05-06 10:50 | 41.75681 | 0.98542 | 26046 ft | 465 kts | 4° |
| 2026-05-06 10:50 | 41.79955 | 0.99632 | 26593 ft | 470 kts | 4° |
| 2026-05-06 10:50 | 41.82095 | 1.00178 | 26871 ft | 472 kts | 4° |
| 2026-05-06 10:51 | 41.85329 | 1.01005 | 27283 ft | 475 kts | 4° |
| 2026-05-06 10:51 | 41.88593 | 1.01841 | 27656 ft | 478 kts | 4° |
| 2026-05-06 10:51 | 41.91890 | 1.02668 | 27984 ft | 482 kts | 4° |
| 2026-05-06 10:51 | 41.95168 | 1.03505 | 28400 ft | 485 kts | 4° |
| 2026-05-06 10:52 | 41.98497 | 1.04365 | 28809 ft | 487 kts | 4° |
| 2026-05-06 10:52 | 42.01823 | 1.05228 | 29278 ft | 487 kts | 4° |
| 2026-05-06 10:52 | 42.05166 | 1.06097 | 29782 ft | 487 kts | 4° |
| 2026-05-06 10:52 | 42.08447 | 1.06948 | 30253 ft | 486 kts | 3° |
| 2026-05-06 10:53 | 42.11761 | 1.07805 | 30697 ft | 485 kts | 4° |
| 2026-05-06 10:53 | 42.15079 | 1.08663 | 31130 ft | 484 kts | 4° |
| 2026-05-06 10:53 | 42.18373 | 1.09514 | 31529 ft | 483 kts | 4° |
| 2026-05-06 10:53 | 42.21684 | 1.10371 | 31926 ft | 482 kts | 4° |
| 2026-05-06 10:54 | 42.24976 | 1.11223 | 32401 ft | 480 kts | 4° |
| 2026-05-06 10:54 | 42.28260 | 1.12073 | 32827 ft | 479 kts | 4° |
| 2026-05-06 10:54 | 42.31536 | 1.12919 | 33210 ft | 478 kts | 4° |
| 2026-05-06 10:54 | 42.34792 | 1.13766 | 33740 ft | 475 kts | 4° |
| 2026-05-06 10:55 | 42.38045 | 1.14616 | 33935 ft | 477 kts | 4° |
| 2026-05-06 10:55 | 42.44607 | 1.16321 | 33927 ft | 479 kts | 4° |
| 2026-05-06 10:56 | 42.51060 | 1.18009 | 33925 ft | 471 kts | 4° |
| 2026-05-06 10:56 | 42.57505 | 1.19691 | 33923 ft | 473 kts | 4° |
| 2026-05-06 10:57 | 42.63969 | 1.21380 | 33952 ft | 471 kts | 4° |
| 2026-05-06 10:57 | 42.70413 | 1.23062 | 33946 ft | 469 kts | 2° |
| 2026-05-06 10:58 | 42.76754 | 1.23181 | 33960 ft | 449 kts | 345° |
| 2026-05-06 10:58 | 42.82961 | 1.22221 | 33972 ft | 448 kts | 345° |
| 2026-05-06 10:59 | 42.89223 | 1.21299 | 33981 ft | 456 kts | 346° |
| 2026-05-06 10:59 | 42.95582 | 1.20407 | 33954 ft | 460 kts | 347° |
| 2026-05-06 11:00 | 43.01925 | 1.19540 | 33970 ft | 461 kts | 347° |
| 2026-05-06 11:00 | 43.08241 | 1.18680 | 33951 ft | 451 kts | 347° |
| 2026-05-06 11:01 | 43.14487 | 1.17815 | 33975 ft | 452 kts | 347° |
| 2026-05-06 11:01 | 43.20761 | 1.16940 | 33971 ft | 454 kts | 347° |
| 2026-05-06 11:02 | 43.27063 | 1.16063 | 33967 ft | 455 kts | 347° |
| 2026-05-06 11:02 | 43.33339 | 1.15190 | 33970 ft | 456 kts | 348° |
| 2026-05-06 11:03 | 43.39675 | 1.14306 | 33963 ft | 457 kts | 348° |
| 2026-05-06 11:03 | 43.46010 | 1.13420 | 33962 ft | 456 kts | 348° |
| 2026-05-06 11:04 | 43.52271 | 1.12543 | 33961 ft | 454 kts | 348° |
| 2026-05-06 11:04 | 43.58546 | 1.11643 | 33957 ft | 449 kts | 346° |
| 2026-05-06 11:05 | 43.64401 | 1.09194 | 33971 ft | 433 kts | 329° |
| 2026-05-06 11:05 | 43.69904 | 1.05804 | 33968 ft | 433 kts | 330° |
| 2026-05-06 11:06 | 43.75390 | 1.02461 | 33961 ft | 433 kts | 330° |
| 2026-05-06 11:06 | 43.80925 | 0.99121 | 33959 ft | 434 kts | 331° |
| 2026-05-06 11:07 | 43.86471 | 0.95785 | 33958 ft | 435 kts | 331° |
| 2026-05-06 11:07 | 43.92030 | 0.92438 | 33961 ft | 436 kts | 331° |
| 2026-05-06 11:08 | 43.97605 | 0.89074 | 33956 ft | 437 kts | 331° |
| 2026-05-06 11:08 | 44.03169 | 0.85708 | 33944 ft | 438 kts | 331° |
| 2026-05-06 11:09 | 44.08727 | 0.82340 | 33956 ft | 438 kts | 332° |
| 2026-05-06 11:09 | 44.14329 | 0.78937 | 33959 ft | 439 kts | 332° |
| 2026-05-06 11:10 | 44.19960 | 0.75508 | 33942 ft | 443 kts | 332° |
| 2026-05-06 11:10 | 44.25577 | 0.72083 | 33924 ft | 439 kts | 332° |
| 2026-05-06 11:11 | 44.31138 | 0.68689 | 33935 ft | 434 kts | 332° |
| 2026-05-06 11:11 | 44.36676 | 0.65295 | 33940 ft | 435 kts | 332° |
| 2026-05-06 11:12 | 44.42241 | 0.61878 | 33948 ft | 436 kts | 332° |
| 2026-05-06 11:12 | 44.47810 | 0.58452 | 33935 ft | 437 kts | 332° |
| 2026-05-06 11:13 | 44.53352 | 0.55036 | 33929 ft | 438 kts | 332° |
| 2026-05-06 11:13 | 44.58925 | 0.51594 | 33922 ft | 438 kts | 333° |
| 2026-05-06 11:14 | 44.64502 | 0.48143 | 33910 ft | 437 kts | 333° |
| 2026-05-06 11:14 | 44.70056 | 0.44699 | 33914 ft | 436 kts | 333° |
| 2026-05-06 11:15 | 44.75605 | 0.41250 | 33915 ft | 434 kts | 333° |
| 2026-05-06 11:15 | 44.81127 | 0.37811 | 33914 ft | 434 kts | 333° |
| 2026-05-06 11:16 | 44.86612 | 0.34387 | 33916 ft | 433 kts | 333° |
| 2026-05-06 11:16 | 44.92118 | 0.30943 | 33917 ft | 433 kts | 333° |
| 2026-05-06 11:17 | 44.97622 | 0.27493 | 33904 ft | 433 kts | 333° |
| 2026-05-06 11:17 | 45.03133 | 0.24031 | 33911 ft | 433 kts | 333° |
| 2026-05-06 11:18 | 45.08643 | 0.20563 | 33906 ft | 433 kts | 334° |
| 2026-05-06 11:18 | 45.14127 | 0.17104 | 33906 ft | 434 kts | 334° |
| 2026-05-06 11:19 | 45.19658 | 0.13608 | 33903 ft | 435 kts | 334° |
| 2026-05-06 11:19 | 45.25194 | 0.10100 | 33900 ft | 436 kts | 334° |
| 2026-05-06 11:20 | 45.30740 | 0.06580 | 33899 ft | 436 kts | 334° |
| 2026-05-06 11:20 | 45.36243 | 0.03079 | 33902 ft | 435 kts | 334° |
| 2026-05-06 11:21 | 45.41778 | -0.00449 | 33908 ft | 435 kts | 334° |
| 2026-05-06 11:21 | 45.47313 | -0.03986 | 33907 ft | 435 kts | 334° |
| 2026-05-06 11:22 | 45.52814 | -0.07509 | 33905 ft | 434 kts | 334° |
| 2026-05-06 11:22 | 45.58308 | -0.11034 | 33901 ft | 433 kts | 334° |
| 2026-05-06 11:23 | 45.63803 | -0.14567 | 33914 ft | 432 kts | 334° |
| 2026-05-06 11:23 | 45.69291 | -0.18104 | 33909 ft | 432 kts | 334° |
| 2026-05-06 11:24 | 45.74772 | -0.21644 | 33912 ft | 432 kts | 334° |
| 2026-05-06 11:24 | 45.80215 | -0.25167 | 33914 ft | 432 kts | 334° |
| 2026-05-06 11:25 | 45.85696 | -0.28723 | 33914 ft | 432 kts | 334° |
| 2026-05-06 11:25 | 45.91173 | -0.32283 | 33913 ft | 433 kts | 334° |
| 2026-05-06 11:26 | 45.96665 | -0.35861 | 33916 ft | 433 kts | 335° |
| 2026-05-06 11:26 | 46.02161 | -0.39450 | 33919 ft | 434 kts | 335° |
| 2026-05-06 11:27 | 46.07664 | -0.43051 | 33917 ft | 434 kts | 335° |
| 2026-05-06 11:27 | 46.13133 | -0.46637 | 33916 ft | 434 kts | 335° |
| 2026-05-06 11:28 | 46.18629 | -0.50250 | 33920 ft | 434 kts | 335° |
| 2026-05-06 11:28 | 46.24122 | -0.53868 | 33928 ft | 433 kts | 335° |
| 2026-05-06 11:29 | 46.29612 | -0.57493 | 33922 ft | 433 kts | 335° |
| 2026-05-06 11:29 | 46.35091 | -0.61118 | 33931 ft | 432 kts | 335° |
| 2026-05-06 11:30 | 46.40549 | -0.64735 | 33928 ft | 431 kts | 336° |
| 2026-05-06 11:30 | 46.46255 | -0.67039 | 33930 ft | 428 kts | 354° |
| 2026-05-06 11:31 | 46.52188 | -0.67951 | 33932 ft | 428 kts | 355° |
| 2026-05-06 11:31 | 46.58115 | -0.68875 | 33931 ft | 428 kts | 354° |
| 2026-05-06 11:32 | 46.64040 | -0.69847 | 33928 ft | 428 kts | 354° |
| 2026-05-06 11:32 | 46.69956 | -0.70842 | 33932 ft | 427 kts | 354° |
| 2026-05-06 11:33 | 46.75832 | -0.71835 | 33931 ft | 427 kts | 355° |
| 2026-05-06 11:33 | 46.81747 | -0.72837 | 33937 ft | 427 kts | 355° |
| 2026-05-06 11:34 | 46.87652 | -0.73839 | 33933 ft | 427 kts | 355° |
| 2026-05-06 11:34 | 46.93562 | -0.74845 | 33940 ft | 426 kts | 355° |
| 2026-05-06 11:35 | 46.99397 | -0.75837 | 33988 ft | 419 kts | 354° |
| 2026-05-06 11:35 | 47.05056 | -0.76806 | 33935 ft | 402 kts | 354° |
| 2026-05-06 11:36 | 47.10621 | -0.77758 | 33951 ft | 404 kts | 354° |
| 2026-05-06 11:36 | 47.16254 | -0.78723 | 33954 ft | 411 kts | 354° |
| 2026-05-06 11:37 | 47.21957 | -0.79703 | 33946 ft | 412 kts | 354° |
| 2026-05-06 11:37 | 47.27621 | -0.80679 | 33952 ft | 412 kts | 354° |
| 2026-05-06 11:38 | 47.33317 | -0.81663 | 33952 ft | 411 kts | 354° |
| 2026-05-06 11:38 | 47.38037 | -0.82480 | 33955 ft | 410 kts | 354° |
| 2026-05-06 11:39 | 47.43708 | -0.83463 | 33957 ft | 409 kts | 354° |
| 2026-05-06 11:39 | 47.49349 | -0.84442 | 33958 ft | 408 kts | 354° |
| 2026-05-06 11:40 | 47.54981 | -0.85410 | 33960 ft | 406 kts | 355° |
| 2026-05-06 11:40 | 47.60585 | -0.86126 | 33966 ft | 405 kts | 356° |
| 2026-05-06 11:41 | 47.66208 | -0.86763 | 33962 ft | 405 kts | 356° |
| 2026-05-06 11:41 | 47.71831 | -0.87420 | 33970 ft | 405 kts | 356° |
| 2026-05-06 11:42 | 47.77483 | -0.88102 | 33983 ft | 409 kts | 356° |
| 2026-05-06 11:42 | 47.83152 | -0.88796 | 33952 ft | 412 kts | 356° |
| 2026-05-06 11:43 | 47.88870 | -0.89499 | 33986 ft | 413 kts | 356° |
| 2026-05-06 11:43 | 47.94586 | -0.90204 | 33964 ft | 411 kts | 356° |
| 2026-05-06 11:44 | 48.03103 | -0.91257 | 33961 ft | 407 kts | 356° |
| 2026-05-06 11:44 | 48.08734 | -0.91955 | 33979 ft | 405 kts | 356° |
| 2026-05-06 11:45 | 48.14366 | -0.92655 | 33973 ft | 405 kts | 356° |
| 2026-05-06 11:45 | 48.19946 | -0.93349 | 33966 ft | 405 kts | 356° |
| 2026-05-06 11:46 | 48.25574 | -0.94051 | 33975 ft | 406 kts | 356° |
| 2026-05-06 11:46 | 48.31220 | -0.94757 | 33972 ft | 407 kts | 356° |
| 2026-05-06 11:47 | 48.36878 | -0.95466 | 33960 ft | 408 kts | 356° |
| 2026-05-06 11:47 | 48.42501 | -0.96172 | 33972 ft | 409 kts | 356° |
| 2026-05-06 11:48 | 48.48183 | -0.96887 | 33956 ft | 410 kts | 356° |
| 2026-05-06 11:48 | 48.53863 | -0.97603 | 33977 ft | 410 kts | 355° |
| 2026-05-06 11:49 | 48.59557 | -0.98324 | 33960 ft | 410 kts | 355° |
| 2026-05-06 11:49 | 48.65253 | -0.99045 | 33968 ft | 410 kts | 355° |
| 2026-05-06 11:50 | 48.70952 | -0.99769 | 33960 ft | 410 kts | 355° |
| 2026-05-06 11:50 | 48.76608 | -1.00490 | 33966 ft | 410 kts | 355° |
| 2026-05-06 11:51 | 48.82286 | -1.01214 | 33963 ft | 409 kts | 355° |
| 2026-05-06 11:51 | 48.87968 | -1.01940 | 33967 ft | 409 kts | 355° |
| 2026-05-06 11:52 | 48.93643 | -1.02668 | 33973 ft | 409 kts | 355° |
| 2026-05-06 11:52 | 48.99317 | -1.03396 | 33970 ft | 409 kts | 355° |
| 2026-05-06 11:53 | 49.05004 | -1.04128 | 33978 ft | 410 kts | 355° |
| 2026-05-06 11:53 | 49.10693 | -1.04862 | 33970 ft | 410 kts | 355° |
| 2026-05-06 11:54 | 49.16354 | -1.04773 | 33996 ft | 409 kts | 6° |
| 2026-05-06 11:54 | 49.22017 | -1.03696 | 33978 ft | 410 kts | 7° |
| 2026-05-06 11:55 | 49.27684 | -1.02639 | 33977 ft | 411 kts | 6° |
| 2026-05-06 11:55 | 49.33358 | -1.01634 | 33978 ft | 411 kts | 6° |
| 2026-05-06 11:56 | 49.39049 | -1.00651 | 33976 ft | 411 kts | 6° |
| 2026-05-06 11:56 | 49.44715 | -0.99676 | 33984 ft | 411 kts | 6° |
| 2026-05-06 11:57 | 49.50408 | -0.98696 | 33988 ft | 412 kts | 6° |
| 2026-05-06 11:57 | 49.56102 | -0.97712 | 33983 ft | 412 kts | 6° |
| 2026-05-06 11:58 | 49.61812 | -0.96722 | 33978 ft | 412 kts | 6° |
| 2026-05-06 11:58 | 49.67459 | -0.95741 | 33970 ft | 408 kts | 6° |
| 2026-05-06 11:59 | 49.73066 | -0.94765 | 33985 ft | 403 kts | 6° |
| 2026-05-06 11:59 | 49.78621 | -0.93796 | 33696 ft | 401 kts | 6° |
| 2026-05-06 12:00 | 49.81359 | -0.93317 | 33490 ft | 392 kts | 6° |
| 2026-05-06 12:00 | 49.84062 | -0.92843 | 33129 ft | 388 kts | 6° |
| 2026-05-06 12:00 | 49.86737 | -0.92374 | 32749 ft | 384 kts | 5° |
| 2026-05-06 12:00 | 49.89384 | -0.91910 | 32397 ft | 381 kts | 5° |
| 2026-05-06 12:01 | 49.91981 | -0.91454 | 32025 ft | 378 kts | 5° |
| 2026-05-06 12:01 | 49.94595 | -0.90995 | 31643 ft | 380 kts | 5° |
| 2026-05-06 12:01 | 49.97238 | -0.90530 | 31022 ft | 384 kts | 5° |
| 2026-05-06 12:01 | 49.99908 | -0.90061 | 30372 ft | 389 kts | 5° |
| 2026-05-06 12:02 | 50.02611 | -0.89584 | 29804 ft | 391 kts | 5° |
| 2026-05-06 12:02 | 50.05310 | -0.89107 | 29381 ft | 388 kts | 5° |
| 2026-05-06 12:02 | 50.07993 | -0.88632 | 28949 ft | 384 kts | 5° |
| 2026-05-06 12:02 | 50.10645 | -0.88163 | 28505 ft | 382 kts | 5° |
| 2026-05-06 12:03 | 50.13279 | -0.87697 | 28069 ft | 379 kts | 5° |
| 2026-05-06 12:03 | 50.15859 | -0.87239 | 27648 ft | 377 kts | 5° |
| 2026-05-06 12:03 | 50.18483 | -0.86774 | 26916 ft | 383 kts | 5° |
| 2026-05-06 12:03 | 50.21094 | -0.86309 | 26753 ft | 376 kts | 5° |
| 2026-05-06 12:04 | 50.23748 | -0.85838 | 26513 ft | 393 kts | 5° |
| 2026-05-06 12:04 | 50.26528 | -0.85346 | 26273 ft | 413 kts | 5° |
| 2026-05-06 12:04 | 50.29446 | -0.84829 | 26015 ft | 425 kts | 5° |
| 2026-05-06 12:04 | 50.32357 | -0.84309 | 25719 ft | 425 kts | 5° |
| 2026-05-06 12:05 | 50.35331 | -0.83774 | 25354 ft | 422 kts | 5° |
| 2026-05-06 12:05 | 50.38202 | -0.83258 | 24975 ft | 421 kts | 5° |
| 2026-05-06 12:05 | 50.41111 | -0.82735 | 24570 ft | 419 kts | 5° |
| 2026-05-06 12:05 | 50.44015 | -0.82213 | 24130 ft | 418 kts | 5° |
| 2026-05-06 12:06 | 50.46888 | -0.81696 | 23703 ft | 413 kts | 5° |
| 2026-05-06 12:06 | 50.49721 | -0.81186 | 23225 ft | 407 kts | 5° |
| 2026-05-06 12:06 | 50.52534 | -0.80679 | 22728 ft | 402 kts | 5° |
| 2026-05-06 12:06 | 50.55303 | -0.80179 | 22228 ft | 397 kts | 5° |
| 2026-05-06 12:07 | 50.58005 | -0.79692 | 21757 ft | 393 kts | 5° |
| 2026-05-06 12:07 | 50.60718 | -0.79202 | 21284 ft | 390 kts | 5° |
| 2026-05-06 12:07 | 50.63401 | -0.78716 | 20853 ft | 386 kts | 5° |
| 2026-05-06 12:07 | 50.66061 | -0.78235 | 20420 ft | 383 kts | 5° |
| 2026-05-06 12:08 | 50.68702 | -0.77756 | 20000 ft | 381 kts | 5° |
| 2026-05-06 12:08 | 50.71268 | -0.77290 | 19581 ft | 379 kts | 5° |
| 2026-05-06 12:08 | 50.73878 | -0.76816 | 19164 ft | 378 kts | 5° |
| 2026-05-06 12:08 | 50.75612 | -0.76501 | 18899 ft | 377 kts | 5° |
| 2026-05-06 12:09 | 50.77275 | -0.76198 | 18639 ft | 376 kts | 5° |
| 2026-05-06 12:09 | 50.79920 | -0.75715 | 18229 ft | 375 kts | 5° |
| 2026-05-06 12:09 | 50.82428 | -0.74913 | 17737 ft | 376 kts | 18° |
| 2026-05-06 12:10 | 50.84867 | -0.73347 | 17347 ft | 374 kts | 21° |
| 2026-05-06 12:10 | 50.87223 | -0.71742 | 16982 ft | 371 kts | 21° |
| 2026-05-06 12:10 | 50.89589 | -0.70149 | 16607 ft | 368 kts | 21° |
| 2026-05-06 12:10 | 50.91621 | -0.68797 | 16303 ft | 366 kts | 21° |
| 2026-05-06 12:11 | 50.93080 | -0.67834 | 16073 ft | 365 kts | 21° |
| 2026-05-06 12:11 | 50.95415 | -0.66304 | 15714 ft | 362 kts | 20° |
| 2026-05-06 12:12 | 51.04672 | -0.60287 | 14410 ft | 352 kts | 20° |
| 2026-05-06 12:13 | 51.06877 | -0.58855 | 14166 ft | 348 kts | 20° |
| 2026-05-06 12:13 | 51.09125 | -0.57395 | 13927 ft | 345 kts | 20° |
| 2026-05-06 12:13 | 51.11248 | -0.56012 | 13688 ft | 342 kts | 20° |
| 2026-05-06 12:15 | 51.13416 | -0.54600 | 13416 ft | 343 kts | 20° |
| 2026-05-06 12:15 | 51.15596 | -0.53179 | 13171 ft | 344 kts | 20° |
| 2026-05-06 12:15 | 51.17814 | -0.51731 | 12945 ft | 345 kts | 20° |
| 2026-05-06 12:15 | 51.19146 | -0.50862 | 12814 ft | 342 kts | 20° |
| 2026-05-06 12:16 | 51.19289 | -0.50768 | 12797 ft | 342 kts | 20° |
| 2026-05-06 12:16 | 51.21456 | -0.49348 | 12581 ft | 339 kts | 20° |
| 2026-05-06 12:17 | 51.23645 | -0.47914 | 12380 ft | 336 kts | 20° |
| 2026-05-06 12:17 | 51.25791 | -0.46510 | 12253 ft | 336 kts | 20° |
| 2026-05-06 12:17 | 51.27978 | -0.45077 | 12088 ft | 334 kts | 20° |
| 2026-05-06 12:17 | 51.30084 | -0.43694 | 11919 ft | 326 kts | 20° |
| 2026-05-06 12:18 | 51.32147 | -0.42334 | 11761 ft | 316 kts | 20° |
| 2026-05-06 12:18 | 51.33524 | -0.41429 | 11652 ft | 311 kts | 20° |
| 2026-05-06 12:18 | 51.34355 | -0.40883 | 11580 ft | 308 kts | 20° |
| 2026-05-06 12:19 | 51.36318 | -0.39591 | 11454 ft | 303 kts | 20° |
| 2026-05-06 12:19 | 51.38237 | -0.38327 | 11306 ft | 294 kts | 20° |
| 2026-05-06 12:19 | 51.40101 | -0.37097 | 11184 ft | 286 kts | 20° |
| 2026-05-06 12:19 | 51.41927 | -0.35892 | 11050 ft | 281 kts | 20° |
| 2026-05-06 12:20 | 51.43726 | -0.34698 | 10922 ft | 279 kts | 21° |
| 2026-05-06 12:20 | 51.45494 | -0.33402 | 10801 ft | 279 kts | 23° |
| 2026-05-06 12:20 | 51.47260 | -0.32044 | 10708 ft | 283 kts | 23° |
| 2026-05-06 12:20 | 51.49043 | -0.30666 | 10612 ft | 286 kts | 23° |
| 2026-05-06 12:21 | 51.50836 | -0.29280 | 10508 ft | 285 kts | 24° |
| 2026-05-06 12:21 | 51.52611 | -0.27908 | 10412 ft | 281 kts | 23° |
| 2026-05-06 12:21 | 51.54364 | -0.26556 | 10301 ft | 278 kts | 22° |
| 2026-05-06 12:21 | 51.56101 | -0.25220 | 10204 ft | 276 kts | 23° |
| 2026-05-06 12:22 | 51.57827 | -0.23894 | 10102 ft | 274 kts | 23° |
| 2026-05-06 12:22 | 51.58971 | -0.23014 | 10037 ft | 274 kts | 23° |
| 2026-05-06 12:22 | 51.60685 | -0.21696 | 9959 ft | 272 kts | 23° |
| 2026-05-06 12:22 | 51.62938 | -0.19964 | 9828 ft | 269 kts | 23° |
| 2026-05-06 12:23 | 51.64625 | -0.18664 | 9720 ft | 268 kts | 23° |
| 2026-05-06 12:23 | 51.65736 | -0.17809 | 9648 ft | 267 kts | 23° |
| 2026-05-06 12:23 | 51.67422 | -0.16510 | 9420 ft | 270 kts | 23° |
| 2026-05-06 12:23 | 51.69127 | -0.15195 | 9163 ft | 274 kts | 23° |
| 2026-05-06 12:24 | 51.70856 | -0.13861 | 8908 ft | 276 kts | 24° |
| 2026-05-06 12:24 | 51.71799 | -0.13131 | 8760 ft | 275 kts | 24° |
| 2026-05-06 12:24 | 51.73509 | -0.11810 | 8492 ft | 271 kts | 24° |
| 2026-05-06 12:24 | 51.75203 | -0.10501 | 8232 ft | 268 kts | 24° |
| 2026-05-06 12:25 | 51.76863 | -0.09305 | 7979 ft | 265 kts | 22° |
| 2026-05-06 12:25 | 51.78549 | -0.08136 | 7802 ft | 259 kts | 22° |
| 2026-05-06 12:25 | 51.80185 | -0.07003 | 7641 ft | 253 kts | 22° |
| 2026-05-06 12:25 | 51.81786 | -0.05891 | 7478 ft | 249 kts | 22° |
| 2026-05-06 12:26 | 51.83376 | -0.04784 | 7306 ft | 248 kts | 23° |
| 2026-05-06 12:26 | 51.84956 | -0.03680 | 7171 ft | 247 kts | 23° |
| 2026-05-06 12:26 | 51.86507 | -0.02514 | 7012 ft | 245 kts | 28° |
| 2026-05-06 12:26 | 51.87981 | -0.01137 | 6866 ft | 244 kts | 30° |
| 2026-05-06 12:27 | 51.89424 | 0.00243 | 6721 ft | 243 kts | 31° |
| 2026-05-06 12:27 | 51.90883 | 0.01639 | 6515 ft | 244 kts | 31° |
| 2026-05-06 12:27 | 51.92351 | 0.03037 | 6253 ft | 246 kts | 31° |
| 2026-05-06 12:27 | 51.93824 | 0.04434 | 6052 ft | 243 kts | 31° |
| 2026-05-06 12:28 | 51.95274 | 0.05811 | 5857 ft | 241 kts | 31° |
| 2026-05-06 12:28 | 51.96671 | 0.07288 | 5646 ft | 238 kts | 43° |
| 2026-05-06 12:28 | 51.97531 | 0.09538 | 5465 ft | 238 kts | 74° |
| 2026-05-06 12:28 | 51.97526 | 0.12202 | 5280 ft | 240 kts | 105° |
| 2026-05-06 12:29 | 51.96660 | 0.14495 | 5100 ft | 242 kts | 135° |
| 2026-05-06 12:29 | 51.95170 | 0.15751 | 4917 ft | 245 kts | 168° |
| 2026-05-06 12:29 | 51.93515 | 0.15608 | 4758 ft | 244 kts | 199° |
| 2026-05-06 12:29 | 51.92044 | 0.14267 | 4593 ft | 242 kts | 216° |
| 2026-05-06 12:30 | 51.90668 | 0.12701 | 4405 ft | 242 kts | 217° |
| 2026-05-06 12:30 | 51.89303 | 0.10999 | 4149 ft | 252 kts | 220° |
| 2026-05-06 12:30 | 51.87939 | 0.09191 | 3904 ft | 255 kts | 221° |
| 2026-05-06 12:30 | 51.86550 | 0.07359 | 3629 ft | 258 kts | 221° |
| 2026-05-06 12:31 | 51.85158 | 0.05542 | 3461 ft | 254 kts | 221° |
| 2026-05-06 12:31 | 51.83804 | 0.03796 | 3251 ft | 246 kts | 220° |
| 2026-05-06 12:31 | 51.82488 | 0.02109 | 3041 ft | 236 kts | 221° |
| 2026-05-06 12:31 | 51.81223 | 0.00489 | 2874 ft | 228 kts | 221° |
| 2026-05-06 12:32 | 51.79980 | -0.01097 | 2738 ft | 228 kts | 220° |
| 2026-05-06 12:32 | 51.78656 | -0.02466 | 2604 ft | 225 kts | 199° |
| 2026-05-06 12:32 | 51.77170 | -0.02411 | 2547 ft | 218 kts | 158° |
| 2026-05-06 12:32 | 51.75922 | -0.01042 | 2510 ft | 213 kts | 127° |
| 2026-05-06 12:33 | 51.75317 | 0.00989 | 2485 ft | 197 kts | 94° |
| 2026-05-06 12:33 | 51.75413 | 0.03133 | 2501 ft | 187 kts | 68° |
| 2026-05-06 12:33 | 51.76001 | 0.04943 | 2493 ft | 183 kts | 45° |
| 2026-05-06 12:33 | 51.76963 | 0.06239 | 2489 ft | 180 kts | 36° |
| 2026-05-06 12:34 | 51.77897 | 0.07576 | 2494 ft | 179 kts | 38° |
| 2026-05-06 12:34 | 51.78808 | 0.08899 | 2476 ft | 171 kts | 38° |
| 2026-05-06 12:34 | 51.79639 | 0.10139 | 2459 ft | 155 kts | 39° |
| 2026-05-06 12:34 | 51.80399 | 0.11285 | 2382 ft | 148 kts | 38° |
| 2026-05-06 12:35 | 51.81159 | 0.12426 | 2200 ft | 151 kts | 39° |
| 2026-05-06 12:35 | 51.81930 | 0.13587 | 1977 ft | 151 kts | 39° |
| 2026-05-06 12:35 | 51.82681 | 0.14722 | 1782 ft | 148 kts | 39° |
| 2026-05-06 12:35 | 51.83449 | 0.15877 | 1584 ft | 152 kts | 39° |
| 2026-05-06 12:36 | 51.84190 | 0.16997 | 1354 ft | 142 kts | 39° |
| 2026-05-06 12:36 | 51.84884 | 0.18038 | 1156 ft | 134 kts | 39° |
| 2026-05-06 12:36 | 51.85566 | 0.19071 | 970 ft | 135 kts | 38° |
| 2026-05-06 12:36 | 51.86255 | 0.20100 | 773 ft | 136 kts | 38° |
| 2026-05-06 12:37 | 51.86957 | 0.21164 | 581 ft | 141 kts | 39° |
| 2026-05-06 12:37 | 51.87669 | 0.22242 | 392 ft | 139 kts | 38° |
| 2026-05-06 12:37 | 51.88328 | 0.23216 | 337 ft | 116 kts | 46° |
| 2026-05-06 12:37 | 51.88731 | 0.23826 | 335 ft | 31 kts | 45° |
| 2026-05-06 12:38 | 51.88855 | 0.24113 | 338 ft | 27 kts | 67° |
| 2026-05-06 12:38 | 51.88906 | 0.24366 | 352 ft | 13 kts | 75° |
| 2026-05-06 12:38 | 51.88913 | 0.24501 | 352 ft | 11 kts | 118° |
| 2026-05-06 12:38 | 51.88925 | 0.24604 | 352 ft | 10 kts | 41° |
| 2026-05-06 12:39 | 51.88977 | 0.24678 | 348 ft | 10 kts | 42° |
| 2026-05-06 12:39 | 51.89025 | 0.24753 | 350 ft | 10 kts | 44° |
| 2026-05-06 12:39 | 51.89073 | 0.24826 | 348 ft | 9 kts | 42° |
| 2026-05-06 12:39 | 51.89120 | 0.24896 | 351 ft | 9 kts | 42° |
| 2026-05-06 12:40 | 51.89166 | 0.24963 | 348 ft | 9 kts | 42° |
| 2026-05-06 12:40 | 51.89208 | 0.25032 | 348 ft | 9 kts | 49° |
| 2026-05-06 12:40 | 51.89239 | 0.25114 | 351 ft | 9 kts | 75° |
| 2026-05-06 12:40 | 51.89216 | 0.25211 | 354 ft | 10 kts | 131° |
| 2026-05-06 12:41 | 51.89163 | 0.25304 | 348 ft | 12 kts | 133° |
| 2026-05-06 12:41 | 51.89108 | 0.25400 | 352 ft | 11 kts | 132° |
| 2026-05-06 12:41 | 51.89068 | 0.25496 | 351 ft | 9 kts | 86° |
| 2026-05-06 12:41 | 51.89101 | 0.25563 | 352 ft | 6 kts | 43° |
| 2026-05-06 12:42 | 51.89107 | 0.25571 | 351 ft | 0 kts | 43° |